createdAt,value
2022-12-25T00:00:20.461Z,40.20
2022-12-25T00:01:15.735Z,29.60
2022-12-25T00:02:14.764Z,31.40
2022-12-25T00:03:14.849Z,34.00
2022-12-25T00:04:14.845Z,35.90
2022-12-25T00:05:14.678Z,31.90
2022-12-25T00:06:14.670Z,37.50
2022-12-25T00:07:14.687Z,37.10
2022-12-25T00:08:14.655Z,33.50
2022-12-25T00:09:14.749Z,31.20
2022-12-25T00:10:14.628Z,31.00
2022-12-25T00:11:14.605Z,33.60
2022-12-25T00:12:14.688Z,37.50
2022-12-25T00:13:14.576Z,35.90
2022-12-25T00:14:14.580Z,37.20
2022-12-25T00:15:14.556Z,37.40
2022-12-25T00:16:14.607Z,36.40
2022-12-25T00:17:14.563Z,32.50
2022-12-25T00:18:14.535Z,42.00
2022-12-25T00:19:14.531Z,37.50
2022-12-25T00:20:14.571Z,33.60
2022-12-25T00:21:14.515Z,36.10
2022-12-25T00:22:14.517Z,38.70
2022-12-25T00:23:14.533Z,34.10
2022-12-25T00:24:14.476Z,32.70
2022-12-25T00:25:14.449Z,38.80
2022-12-25T00:26:14.469Z,35.90
2022-12-25T00:27:14.462Z,33.40
2022-12-25T00:28:14.437Z,35.50
2022-12-25T00:29:14.452Z,34.00
2022-12-25T00:30:14.407Z,38.40
2022-12-25T00:31:14.561Z,36.00
2022-12-25T00:32:14.590Z,39.50
2022-12-25T00:33:14.355Z,35.90
2022-12-25T00:34:14.365Z,32.40
2022-12-25T00:35:14.377Z,36.30
2022-12-25T00:36:14.395Z,38.50
2022-12-25T00:37:14.319Z,33.90
2022-12-25T00:38:14.347Z,30.60
2022-12-25T00:39:14.339Z,31.20
2022-12-25T00:40:14.357Z,32.60
2022-12-25T00:41:14.284Z,28.80
2022-12-25T00:42:14.286Z,32.60
2022-12-25T00:43:14.355Z,36.00
2022-12-25T00:44:14.244Z,29.70
2022-12-25T00:45:15.975Z,33.50
2022-12-25T00:46:14.326Z,29.60
2022-12-25T00:47:14.289Z,34.00
2022-12-25T00:48:14.238Z,29.50
2022-12-25T00:49:14.246Z,32.70
2022-12-25T00:50:14.203Z,28.80
2022-12-25T00:51:14.216Z,30.60
2022-12-25T00:52:14.223Z,29.70
2022-12-25T00:53:14.187Z,34.30
2022-12-25T00:54:14.172Z,33.70
2022-12-25T00:55:14.164Z,32.00
2022-12-25T00:56:14.121Z,35.50
2022-12-25T00:57:14.155Z,30.70
2022-12-25T00:58:14.190Z,31.10
2022-12-25T00:59:14.143Z,30.20
2022-12-25T01:00:14.063Z,29.30
2022-12-25T01:01:14.369Z,34.60
2022-12-25T01:02:14.136Z,29.30
2022-12-25T01:03:14.214Z,27.00
2022-12-25T01:04:14.080Z,30.00
2022-12-25T01:05:14.033Z,32.10
2022-12-25T01:06:14.056Z,33.00
2022-12-25T01:07:14.043Z,30.50
2022-12-25T01:08:13.985Z,30.10
2022-12-25T01:09:14.118Z,28.10
2022-12-25T01:10:14.003Z,32.70
2022-12-25T01:11:13.976Z,24.80
2022-12-25T01:12:13.950Z,27.00
2022-12-25T01:13:13.963Z,31.50
2022-12-25T01:14:13.996Z,24.60
2022-12-25T01:15:13.994Z,33.40
2022-12-25T01:16:13.929Z,29.60
2022-12-25T01:17:13.888Z,30.20
2022-12-25T01:18:13.886Z,29.60
2022-12-25T01:19:13.880Z,29.70
2022-12-25T01:20:13.923Z,28.40
2022-12-25T01:21:13.858Z,25.80
2022-12-25T01:22:13.845Z,27.00
2022-12-25T01:23:13.853Z,22.70
2022-12-25T01:24:13.864Z,28.70
2022-12-25T01:25:13.810Z,27.90
2022-12-25T01:26:13.801Z,29.40
2022-12-25T01:27:13.816Z,30.70
2022-12-25T01:28:13.808Z,27.40
2022-12-25T01:29:13.791Z,27.90
2022-12-25T01:30:13.756Z,27.40
2022-12-25T01:31:13.838Z,25.70
2022-12-25T01:32:13.796Z,28.20
2022-12-25T01:33:13.752Z,28.50
2022-12-25T01:34:13.790Z,28.20
2022-12-25T01:35:13.718Z,32.40
2022-12-25T01:36:13.679Z,31.10
2022-12-25T01:37:13.670Z,27.10
2022-12-25T01:38:13.956Z,24.30
2022-12-25T01:39:13.647Z,25.10
2022-12-25T01:40:13.648Z,27.50
2022-12-25T01:41:13.681Z,26.40
2022-12-25T01:42:13.625Z,25.20
2022-12-25T01:43:18.509Z,32.30
2022-12-25T01:44:14.622Z,29.00
2022-12-25T01:45:13.624Z,27.10
2022-12-25T01:46:13.630Z,25.00
2022-12-25T01:47:13.589Z,27.60
2022-12-25T01:48:13.557Z,26.80
2022-12-25T01:49:13.600Z,27.70
2022-12-25T01:50:13.527Z,36.30
2022-12-25T01:51:13.539Z,27.30
2022-12-25T01:52:14.909Z,25.70
2022-12-25T01:53:13.517Z,24.60
2022-12-25T01:54:13.526Z,29.70
2022-12-25T01:55:13.533Z,22.90
2022-12-25T01:56:13.449Z,27.00
2022-12-25T01:57:13.502Z,23.40
2022-12-25T01:58:13.485Z,27.30
2022-12-25T01:59:13.459Z,23.80
2022-12-25T02:00:13.449Z,21.50
2022-12-25T02:01:13.444Z,25.80
2022-12-25T02:02:13.567Z,23.40
2022-12-25T02:03:13.552Z,24.80
2022-12-25T02:04:13.371Z,25.00
2022-12-25T02:05:13.453Z,21.60
2022-12-25T02:06:13.383Z,21.00
2022-12-25T02:07:13.368Z,26.30
2022-12-25T02:08:13.352Z,27.60
2022-12-25T02:09:13.393Z,21.20
2022-12-25T02:10:13.323Z,22.60
2022-12-25T02:11:13.299Z,21.50
2022-12-25T02:12:13.370Z,24.80
2022-12-25T02:13:13.305Z,21.20
2022-12-25T02:14:13.318Z,21.20
2022-12-25T02:15:13.311Z,24.50
2022-12-25T02:16:13.319Z,22.20
2022-12-25T02:17:13.379Z,24.50
2022-12-25T02:18:13.219Z,20.40
2022-12-25T02:19:13.228Z,19.10
2022-12-25T02:20:13.255Z,19.20
2022-12-25T02:21:13.225Z,19.90
2022-12-25T02:22:13.177Z,20.60
2022-12-25T02:23:13.227Z,22.00
2022-12-25T02:24:13.160Z,24.20
2022-12-25T02:25:13.182Z,23.30
2022-12-25T02:26:13.207Z,32.10
2022-12-25T02:27:13.128Z,22.20
2022-12-25T02:28:13.107Z,20.00
2022-12-25T02:29:13.147Z,19.10
2022-12-25T02:30:13.112Z,20.10
2022-12-25T02:31:13.133Z,25.00
2022-12-25T02:32:13.249Z,25.70
2022-12-25T02:33:13.069Z,21.70
2022-12-25T02:34:13.068Z,18.90
2022-12-25T02:35:13.060Z,24.80
2022-12-25T02:36:13.103Z,21.30
2022-12-25T02:37:13.037Z,17.10
2022-12-25T02:38:13.022Z,15.80
2022-12-25T02:39:13.027Z,19.20
2022-12-25T02:40:13.008Z,17.40
2022-12-25T02:41:12.978Z,16.00
2022-12-25T02:42:12.996Z,17.80
2022-12-25T02:43:12.962Z,16.30
2022-12-25T02:44:12.951Z,16.30
2022-12-25T02:45:12.977Z,14.10
2022-12-25T02:46:13.067Z,18.30
2022-12-25T02:47:12.979Z,16.60
2022-12-25T02:48:12.898Z,17.80
2022-12-25T02:49:12.898Z,14.90
2022-12-25T02:50:12.916Z,13.80
2022-12-25T02:51:12.871Z,14.50
2022-12-25T02:52:12.877Z,13.30
2022-12-25T02:53:12.878Z,15.50
2022-12-25T02:54:12.858Z,14.60
2022-12-25T02:55:12.841Z,10.00
2022-12-25T02:56:12.882Z,13.20
2022-12-25T02:57:12.829Z,15.80
2022-12-25T02:58:12.794Z,12.20
2022-12-25T02:59:12.805Z,15.60
2022-12-25T03:00:12.794Z,14.80
2022-12-25T03:01:12.860Z,12.40
2022-12-25T03:02:12.920Z,9.80
2022-12-25T03:03:12.771Z,11.50
2022-12-25T03:04:12.736Z,8.60
2022-12-25T03:05:12.735Z,10.40
2022-12-25T03:06:12.730Z,9.70
2022-12-25T03:07:12.759Z,12.40
2022-12-25T03:08:12.737Z,11.30
2022-12-25T03:09:12.679Z,12.60
2022-12-25T03:10:12.689Z,13.10
2022-12-25T03:11:12.659Z,11.80
2022-12-25T03:12:12.648Z,9.10
2022-12-25T03:13:12.628Z,12.50
2022-12-25T03:14:12.723Z,9.50
2022-12-25T03:15:12.649Z,12.50
2022-12-25T03:16:12.610Z,8.50
2022-12-25T03:17:12.669Z,12.60
2022-12-25T03:18:12.567Z,13.40
2022-12-25T03:19:12.878Z,10.80
2022-12-25T03:20:12.643Z,14.30
2022-12-25T03:21:12.573Z,12.20
2022-12-25T03:22:12.555Z,12.40
2022-12-25T03:23:12.576Z,15.20
2022-12-25T03:24:12.542Z,11.50
2022-12-25T03:25:12.538Z,10.50
2022-12-25T03:26:12.550Z,13.00
2022-12-25T03:27:12.531Z,7.90
2022-12-25T03:28:12.498Z,16.10
2022-12-25T03:29:12.459Z,14.20
2022-12-25T03:30:12.473Z,11.40
2022-12-25T03:31:12.665Z,12.40
2022-12-25T03:32:12.470Z,10.00
2022-12-25T03:33:36.670Z,11.90
2022-12-25T03:34:13.418Z,9.80
2022-12-25T03:35:12.410Z,10.50
2022-12-25T03:36:12.387Z,10.40
2022-12-25T03:37:12.393Z,11.80
2022-12-25T03:38:12.410Z,12.80
2022-12-25T03:39:12.359Z,15.90
2022-12-25T03:40:12.338Z,15.80
2022-12-25T03:41:12.384Z,13.50
2022-12-25T03:42:12.338Z,16.50
2022-12-25T03:43:12.335Z,14.00
2022-12-25T03:44:12.344Z,13.50
2022-12-25T03:45:12.326Z,10.80
2022-12-25T03:46:12.350Z,13.30
2022-12-25T03:47:12.304Z,10.40
2022-12-25T03:48:12.276Z,13.10
2022-12-25T03:49:12.263Z,10.90
2022-12-25T03:50:12.262Z,11.80
2022-12-25T03:51:12.217Z,13.00
2022-12-25T03:52:12.223Z,13.00
2022-12-25T03:53:12.309Z,11.30
2022-12-25T03:54:12.218Z,13.30
2022-12-25T03:55:12.189Z,14.70
2022-12-25T03:56:12.166Z,13.90
2022-12-25T03:57:12.186Z,15.90
2022-12-25T03:58:12.237Z,11.40
2022-12-25T03:59:13.611Z,9.60
2022-12-25T04:00:12.116Z,10.90
2022-12-25T04:01:12.168Z,14.80
2022-12-25T04:02:12.301Z,13.70
2022-12-25T04:03:12.171Z,13.60
2022-12-25T04:04:12.111Z,11.10
2022-12-25T04:05:12.106Z,12.90
2022-12-25T04:06:12.049Z,14.10
2022-12-25T04:07:12.059Z,10.50
2022-12-25T04:08:12.054Z,10.50
2022-12-25T04:09:12.097Z,13.80
2022-12-25T04:10:12.007Z,14.10
2022-12-25T04:11:12.037Z,14.00
2022-12-25T04:12:12.018Z,12.00
2022-12-25T04:13:12.007Z,13.10
2022-12-25T04:14:12.011Z,18.00
2022-12-25T04:15:12.045Z,12.40
2022-12-25T04:16:12.049Z,12.30
2022-12-25T04:17:12.013Z,11.80
2022-12-25T04:18:11.948Z,12.40
2022-12-25T04:19:11.990Z,11.60
2022-12-25T04:20:11.936Z,12.90
2022-12-25T04:21:11.918Z,13.90
2022-12-25T04:22:11.895Z,14.40
2022-12-25T04:23:11.886Z,15.90
2022-12-25T04:24:11.904Z,11.80
2022-12-25T04:25:11.893Z,13.40
2022-12-25T04:26:11.886Z,11.50
2022-12-25T04:27:11.827Z,17.10
2022-12-25T04:28:11.836Z,16.50
2022-12-25T04:29:11.814Z,15.80
2022-12-25T04:30:11.797Z,14.70
2022-12-25T04:31:11.863Z,16.00
2022-12-25T04:32:11.875Z,13.50
2022-12-25T04:33:11.789Z,14.40
2022-12-25T04:34:11.787Z,17.70
2022-12-25T04:35:11.807Z,15.00
2022-12-25T04:37:21.787Z,15.60
2022-12-25T04:38:21.740Z,16.30
2022-12-25T04:39:21.717Z,12.10
2022-12-25T04:40:21.718Z,15.00
2022-12-25T04:41:21.696Z,14.40
2022-12-25T04:42:21.686Z,13.10
2022-12-25T04:43:21.711Z,18.20
2022-12-25T04:44:21.667Z,13.00
2022-12-25T04:45:21.656Z,12.90
2022-12-25T04:46:21.700Z,14.80
2022-12-25T04:47:21.675Z,15.80
2022-12-25T04:48:21.646Z,14.00
2022-12-25T04:49:21.609Z,13.90
2022-12-25T04:50:21.608Z,15.60
2022-12-25T04:51:21.610Z,14.10
2022-12-25T04:52:21.603Z,12.30
2022-12-25T04:53:21.637Z,16.40
2022-12-25T04:54:21.629Z,14.00
2022-12-25T04:55:21.574Z,13.70
2022-12-25T04:56:21.611Z,14.20
2022-12-25T04:57:21.533Z,14.20
2022-12-25T04:58:21.569Z,12.70
2022-12-25T04:59:21.569Z,13.60
2022-12-25T05:00:21.564Z,15.50
2022-12-25T05:01:21.634Z,14.60
2022-12-25T05:02:21.684Z,19.40
2022-12-25T05:03:21.506Z,13.30
2022-12-25T05:04:21.477Z,14.30
2022-12-25T05:05:21.465Z,13.10
2022-12-25T05:06:22.406Z,13.20
2022-12-25T05:07:21.427Z,13.00
2022-12-25T05:08:21.419Z,13.20
2022-12-25T05:09:21.398Z,13.90
2022-12-25T05:10:21.421Z,14.70
2022-12-25T05:11:21.376Z,12.50
2022-12-25T05:12:21.419Z,11.10
2022-12-25T05:13:21.359Z,12.50
2022-12-25T05:14:21.350Z,14.90
2022-12-25T05:15:21.626Z,12.50
2022-12-25T05:16:21.381Z,18.80
2022-12-25T05:17:21.309Z,18.00
2022-12-25T05:18:21.338Z,15.40
2022-12-25T05:19:21.287Z,14.20
2022-12-25T05:20:21.294Z,15.10
2022-12-25T05:21:21.283Z,16.70
2022-12-25T05:22:21.310Z,14.90
2022-12-25T05:23:21.246Z,15.60
2022-12-25T05:24:21.249Z,14.90
2022-12-25T05:25:21.254Z,13.10
2022-12-25T05:26:21.218Z,14.80
2022-12-25T05:27:21.221Z,14.10
2022-12-25T05:28:21.205Z,15.00
2022-12-25T05:29:21.223Z,12.80
2022-12-25T05:30:21.217Z,11.90
2022-12-25T05:31:21.208Z,12.90
2022-12-25T05:32:21.156Z,14.00
2022-12-25T05:33:21.134Z,12.50
2022-12-25T05:34:21.126Z,13.70
2022-12-25T05:35:21.184Z,13.50
2022-12-25T05:36:21.102Z,11.50
2022-12-25T05:37:21.099Z,13.60
2022-12-25T05:38:21.090Z,17.00
2022-12-25T05:39:21.103Z,13.40
2022-12-25T05:40:21.610Z,14.00
2022-12-25T05:41:21.102Z,14.20
2022-12-25T05:42:21.059Z,13.90
2022-12-25T05:43:21.042Z,13.30
2022-12-25T05:44:21.022Z,14.90
2022-12-25T05:45:21.003Z,14.20
2022-12-25T05:46:21.102Z,13.20
2022-12-25T05:47:20.999Z,15.30
2022-12-25T05:48:21.015Z,17.70
2022-12-25T05:49:20.986Z,12.40
2022-12-25T05:50:20.996Z,14.90
2022-12-25T05:51:20.943Z,13.30
2022-12-25T05:52:26.351Z,14.50
2022-12-25T05:53:20.939Z,14.70
2022-12-25T05:54:20.933Z,15.30
2022-12-25T05:55:20.899Z,13.70
2022-12-25T05:56:20.902Z,17.10
2022-12-25T05:57:20.891Z,16.10
2022-12-25T05:58:20.931Z,14.40
2022-12-25T05:59:20.861Z,16.70
2022-12-25T06:00:20.860Z,17.00
2022-12-25T06:01:20.907Z,13.30
2022-12-25T06:02:20.890Z,14.80
2022-12-25T06:03:20.950Z,13.90
2022-12-25T06:04:20.852Z,13.70
2022-12-25T06:05:20.811Z,12.00
2022-12-25T06:06:20.810Z,12.70
2022-12-25T06:07:20.835Z,14.80
2022-12-25T06:08:20.768Z,11.90
2022-12-25T06:09:20.749Z,15.10
2022-12-25T06:10:20.749Z,12.20
2022-12-25T06:11:20.721Z,13.60
2022-12-25T06:12:20.839Z,16.00
2022-12-25T06:13:20.708Z,16.60
2022-12-25T06:14:20.701Z,18.10
2022-12-25T06:15:20.710Z,12.90
2022-12-25T06:16:20.754Z,15.80
2022-12-25T06:17:20.722Z,14.80
2022-12-25T06:18:20.731Z,13.30
2022-12-25T06:19:20.660Z,18.00
2022-12-25T06:20:20.674Z,17.00
2022-12-25T06:21:20.680Z,14.20
2022-12-25T06:22:20.612Z,15.00
2022-12-25T06:23:20.629Z,13.80
2022-12-25T06:24:21.649Z,15.40
2022-12-25T06:25:20.590Z,14.10
2022-12-25T06:26:20.571Z,12.70
2022-12-25T06:27:20.566Z,12.50
2022-12-25T06:28:20.549Z,11.60
2022-12-25T06:29:20.539Z,11.40
2022-12-25T06:30:24.638Z,15.50
2022-12-25T06:31:20.555Z,15.50
2022-12-25T06:32:20.501Z,15.90
2022-12-25T06:33:20.509Z,11.30
2022-12-25T06:34:20.519Z,13.40
2022-12-25T06:35:20.490Z,19.10
2022-12-25T06:36:20.488Z,14.80
2022-12-25T06:37:20.461Z,14.40
2022-12-25T06:38:20.448Z,13.00
2022-12-25T06:39:20.456Z,16.00
2022-12-25T06:40:20.448Z,14.10
2022-12-25T06:41:20.409Z,15.30
2022-12-25T06:42:20.408Z,12.70
2022-12-25T06:43:20.533Z,13.10
2022-12-25T06:44:20.383Z,18.00
2022-12-25T06:45:20.439Z,13.90
2022-12-25T06:46:20.414Z,13.60
2022-12-25T06:47:20.370Z,14.60
2022-12-25T06:48:20.338Z,14.30
2022-12-25T06:49:20.359Z,15.30
2022-12-25T06:50:20.319Z,14.30
2022-12-25T06:51:20.339Z,15.10
2022-12-25T06:52:20.288Z,14.10
2022-12-25T06:53:20.298Z,11.50
2022-12-25T06:54:20.344Z,15.30
2022-12-25T06:55:20.282Z,14.30
2022-12-25T06:56:20.238Z,16.40
2022-12-25T06:57:20.248Z,12.70
2022-12-25T06:58:20.217Z,16.20
2022-12-25T06:59:20.297Z,13.20
2022-12-25T07:00:20.227Z,11.10
2022-12-25T07:01:20.283Z,14.70
2022-12-25T07:02:20.343Z,12.40
2022-12-25T07:03:20.324Z,14.70
2022-12-25T07:04:20.160Z,16.00
2022-12-25T07:05:20.245Z,14.60
2022-12-25T07:06:20.176Z,16.50
2022-12-25T07:07:20.145Z,15.50
2022-12-25T07:08:20.129Z,13.30
2022-12-25T07:09:20.128Z,11.50
2022-12-25T07:10:20.117Z,13.30
2022-12-25T07:11:20.279Z,12.10
2022-12-25T07:12:20.079Z,13.40
2022-12-25T07:13:20.067Z,13.30
2022-12-25T07:14:23.697Z,13.70
2022-12-25T07:15:20.046Z,14.30
2022-12-25T07:16:20.161Z,13.30
2022-12-25T07:17:20.029Z,12.50
2022-12-25T07:18:20.068Z,13.40
2022-12-25T07:19:20.005Z,14.30
2022-12-25T07:20:19.986Z,13.60
2022-12-25T07:21:19.983Z,15.10
2022-12-25T07:22:20.027Z,12.80
2022-12-25T07:23:19.977Z,13.70
2022-12-25T07:24:19.965Z,13.20
2022-12-25T07:25:19.947Z,15.40
2022-12-25T07:26:19.996Z,15.30
2022-12-25T07:27:19.935Z,17.50
2022-12-25T07:28:19.936Z,11.30
2022-12-25T07:29:19.927Z,12.10
2022-12-25T07:30:19.894Z,15.00
2022-12-25T07:31:19.912Z,13.80
2022-12-25T07:32:19.874Z,12.50
2022-12-25T07:33:19.877Z,10.50
2022-12-25T07:34:19.883Z,16.40
2022-12-25T07:35:19.840Z,11.50
2022-12-25T07:36:19.814Z,15.00
2022-12-25T07:37:19.822Z,14.10
2022-12-25T07:38:19.834Z,13.00
2022-12-25T07:39:19.796Z,13.20
2022-12-25T07:40:19.782Z,11.70
2022-12-25T07:41:19.815Z,12.70
2022-12-25T07:42:24.893Z,13.00
2022-12-25T07:43:20.752Z,12.40
2022-12-25T07:44:19.738Z,10.60
2022-12-25T07:45:19.912Z,10.60
2022-12-25T07:46:19.731Z,14.70
2022-12-25T07:47:19.741Z,13.90
2022-12-25T07:48:19.724Z,9.00
2022-12-25T07:49:19.683Z,14.00
2022-12-25T07:50:19.673Z,12.20
2022-12-25T07:51:19.665Z,11.40
2022-12-25T07:52:19.693Z,11.70
2022-12-25T07:53:19.660Z,10.20
2022-12-25T07:54:19.637Z,12.30
2022-12-25T07:55:19.623Z,12.50
2022-12-25T07:56:20.061Z,10.40
2022-12-25T07:57:19.594Z,10.70
2022-12-25T07:58:23.261Z,13.20
2022-12-25T07:59:19.604Z,9.70
2022-12-25T08:00:19.598Z,10.80
2022-12-25T08:01:19.712Z,11.10
2022-12-25T08:02:19.760Z,12.70
2022-12-25T08:03:19.763Z,10.80
2022-12-25T08:04:19.853Z,12.90
2022-12-25T08:05:19.516Z,11.20
2022-12-25T08:06:19.522Z,12.50
2022-12-25T08:07:19.499Z,12.50
2022-12-25T08:08:19.514Z,10.40
2022-12-25T08:09:19.463Z,11.10
2022-12-25T08:10:19.453Z,11.40
2022-12-25T08:11:19.452Z,8.70
2022-12-25T08:12:19.437Z,11.10
2022-12-25T08:13:19.467Z,12.40
2022-12-25T08:14:19.432Z,12.40
2022-12-25T08:15:19.433Z,10.60
2022-12-25T08:16:19.482Z,11.80
2022-12-25T08:17:19.374Z,10.40
2022-12-25T08:18:22.204Z,13.30
2022-12-25T08:19:20.379Z,10.60
2022-12-25T08:20:19.361Z,9.20
2022-12-25T08:21:19.352Z,12.90
2022-12-25T08:22:19.430Z,12.50
2022-12-25T08:23:19.312Z,14.30
2022-12-25T08:24:19.302Z,13.30
2022-12-25T08:25:19.317Z,15.30
2022-12-25T08:26:19.288Z,12.70
2022-12-25T08:27:19.271Z,12.60
2022-12-25T08:28:19.313Z,12.60
2022-12-25T08:29:19.266Z,14.50
2022-12-25T08:30:19.294Z,15.30
2022-12-25T08:31:19.355Z,15.20
2022-12-25T08:32:19.261Z,14.40
2022-12-25T08:33:19.249Z,14.70
2022-12-25T08:34:19.212Z,12.80
2022-12-25T08:35:19.201Z,15.40
2022-12-25T08:36:19.199Z,12.80
2022-12-25T08:37:19.206Z,10.30
2022-12-25T08:38:19.162Z,14.10
2022-12-25T08:39:19.149Z,11.60
2022-12-25T08:40:19.141Z,11.90
2022-12-25T08:41:19.150Z,14.00
2022-12-25T08:42:19.128Z,13.80
2022-12-25T08:43:19.173Z,11.60
2022-12-25T08:44:19.131Z,12.70
2022-12-25T08:45:19.095Z,12.60
2022-12-25T08:46:19.162Z,14.30
2022-12-25T08:47:19.240Z,14.20
2022-12-25T08:48:19.251Z,12.50
2022-12-25T08:49:19.089Z,19.00
2022-12-25T08:50:19.029Z,13.20
2022-12-25T08:51:19.032Z,13.70
2022-12-25T08:52:19.069Z,16.40
2022-12-25T08:53:19.073Z,15.60
2022-12-25T08:54:19.013Z,14.20
2022-12-25T08:55:18.991Z,16.40
2022-12-25T08:56:19.003Z,15.60
2022-12-25T08:57:18.961Z,13.80
2022-12-25T08:58:18.958Z,18.50
2022-12-25T08:59:19.089Z,14.80
2022-12-25T09:00:19.112Z,22.90
2022-12-25T09:01:19.062Z,19.10
2022-12-25T09:02:19.069Z,18.50
2022-12-25T09:03:18.902Z,15.90
2022-12-25T09:04:18.937Z,14.30
2022-12-25T09:05:18.890Z,16.30
2022-12-25T09:06:18.875Z,17.20
2022-12-25T09:07:18.871Z,15.80
2022-12-25T09:08:18.881Z,16.10
2022-12-25T09:09:18.883Z,15.90
2022-12-25T09:10:18.846Z,16.60
2022-12-25T09:11:18.806Z,15.50
2022-12-25T09:12:18.818Z,15.00
2022-12-25T09:13:18.801Z,17.70
2022-12-25T09:14:18.828Z,16.70
2022-12-25T09:15:18.918Z,14.60
2022-12-25T09:16:19.432Z,13.50
2022-12-25T09:17:18.748Z,13.30
2022-12-25T09:18:18.729Z,13.40
2022-12-25T09:19:18.758Z,14.70
2022-12-25T09:20:18.740Z,16.20
2022-12-25T09:21:18.716Z,13.40
2022-12-25T09:22:18.720Z,17.60
2022-12-25T09:23:18.756Z,17.00
2022-12-25T09:24:18.687Z,16.30
2022-12-25T09:25:18.678Z,16.00
2022-12-25T09:26:18.648Z,20.10
2022-12-25T09:27:18.638Z,18.40
2022-12-25T09:28:18.625Z,17.80
2022-12-25T09:29:18.657Z,18.30
2022-12-25T09:30:18.630Z,18.00
2022-12-25T09:31:18.723Z,18.40
2022-12-25T09:32:18.592Z,16.30
2022-12-25T09:33:18.578Z,19.20
2022-12-25T09:34:19.446Z,21.90
2022-12-25T09:35:18.563Z,19.20
2022-12-25T09:36:18.538Z,17.20
2022-12-25T09:37:18.530Z,15.60
2022-12-25T09:38:18.518Z,17.40
2022-12-25T09:39:18.621Z,16.30
2022-12-25T09:40:18.559Z,17.90
2022-12-25T09:41:18.494Z,17.90
2022-12-25T09:42:18.504Z,17.80
2022-12-25T09:43:18.479Z,17.10
2022-12-25T09:44:18.468Z,15.90
2022-12-25T09:45:18.453Z,17.80
2022-12-25T09:46:18.496Z,19.00
2022-12-25T09:47:18.429Z,17.50
2022-12-25T09:48:18.406Z,19.30
2022-12-25T09:49:18.407Z,18.70
2022-12-25T09:50:18.385Z,21.90
2022-12-25T09:51:18.394Z,18.70
2022-12-25T09:52:18.414Z,22.30
2022-12-25T09:53:18.370Z,22.90
2022-12-25T09:54:18.362Z,18.20
2022-12-25T09:55:20.480Z,18.10
2022-12-25T09:56:18.413Z,17.10
2022-12-25T09:57:18.316Z,16.60
2022-12-25T09:58:18.312Z,20.30
2022-12-25T09:59:18.309Z,20.40
2022-12-25T10:00:18.300Z,16.00
2022-12-25T10:01:18.374Z,19.60
2022-12-25T10:02:18.503Z,18.30
2022-12-25T10:03:18.346Z,35.80
2022-12-25T10:04:18.236Z,26.30
2022-12-25T10:05:18.259Z,35.00
2022-12-25T10:06:18.256Z,27.50
2022-12-25T10:07:18.221Z,26.80
2022-12-25T10:08:18.265Z,27.60
2022-12-25T10:09:18.198Z,24.20
2022-12-25T10:10:18.189Z,25.80
2022-12-25T10:11:25.086Z,20.10
2022-12-25T10:12:18.214Z,24.00
2022-12-25T10:13:18.185Z,28.30
2022-12-25T10:14:18.126Z,23.00
2022-12-25T10:15:18.135Z,15.00
2022-12-25T10:16:18.196Z,19.70
2022-12-25T10:17:18.106Z,19.30
2022-12-25T10:18:18.133Z,16.60
2022-12-25T10:19:18.087Z,17.90
2022-12-25T10:20:18.155Z,19.00
2022-12-25T10:21:18.149Z,21.60
2022-12-25T10:22:18.081Z,18.60
2022-12-25T10:23:18.046Z,21.70
2022-12-25T10:24:18.030Z,17.80
2022-12-25T10:25:18.023Z,16.90
2022-12-25T10:26:18.003Z,19.60
2022-12-25T10:27:20.721Z,18.90
2022-12-25T10:28:18.019Z,15.00
2022-12-25T10:29:17.964Z,19.90
2022-12-25T10:30:18.097Z,20.60
2022-12-25T10:31:18.025Z,21.10
2022-12-25T10:32:17.944Z,17.90
2022-12-25T10:33:17.963Z,21.20
2022-12-25T10:34:17.933Z,23.70
2022-12-25T10:35:17.915Z,19.40
2022-12-25T10:36:25.419Z,23.60
2022-12-25T10:37:17.948Z,26.40
2022-12-25T10:38:17.876Z,24.90
2022-12-25T10:39:17.889Z,20.30
2022-12-25T10:40:17.843Z,19.50
2022-12-25T10:41:17.835Z,19.20
2022-12-25T10:42:17.889Z,16.60
2022-12-25T10:43:17.817Z,21.10
2022-12-25T10:44:17.809Z,17.70
2022-12-25T10:45:17.804Z,18.90
2022-12-25T10:46:17.853Z,18.00
2022-12-25T10:47:17.779Z,16.80
2022-12-25T10:48:17.833Z,16.30
2022-12-25T10:49:17.756Z,17.10
2022-12-25T10:50:17.749Z,19.20
2022-12-25T10:51:17.729Z,17.90
2022-12-25T10:52:17.760Z,16.40
2022-12-25T10:53:17.704Z,18.30
2022-12-25T10:54:17.714Z,17.80
2022-12-25T10:55:17.697Z,17.30
2022-12-25T10:56:17.737Z,16.30
2022-12-25T10:57:17.662Z,15.80
2022-12-25T10:58:17.654Z,16.00
2022-12-25T10:59:17.657Z,16.70
2022-12-25T11:00:17.643Z,16.20
2022-12-25T11:01:17.782Z,17.00
2022-12-25T11:02:17.850Z,18.70
2022-12-25T11:03:17.753Z,15.60
2022-12-25T11:04:17.597Z,14.40
2022-12-25T11:05:17.585Z,18.00
2022-12-25T11:06:17.622Z,16.50
2022-12-25T11:07:17.553Z,19.00
2022-12-25T11:08:17.553Z,18.50
2022-12-25T11:09:17.556Z,16.10
2022-12-25T11:10:17.527Z,16.00
2022-12-25T11:11:17.514Z,22.90
2022-12-25T11:12:17.553Z,18.50
2022-12-25T11:13:17.545Z,21.40
2022-12-25T11:14:17.492Z,21.80
2022-12-25T11:15:17.482Z,18.80
2022-12-25T11:16:17.537Z,20.30
2022-12-25T11:17:17.453Z,22.60
2022-12-25T11:18:17.531Z,21.20
2022-12-25T11:19:17.472Z,15.90
2022-12-25T11:20:17.433Z,19.90
2022-12-25T11:21:17.435Z,16.40
2022-12-25T11:22:17.423Z,19.90
2022-12-25T11:23:17.401Z,17.60
2022-12-25T11:24:17.422Z,19.00
2022-12-25T11:25:17.382Z,20.40
2022-12-25T11:26:17.447Z,20.10
2022-12-25T11:27:17.352Z,16.50
2022-12-25T11:28:17.351Z,21.40
2022-12-25T11:29:17.321Z,20.20
2022-12-25T11:30:17.320Z,24.80
2022-12-25T11:31:17.325Z,20.00
2022-12-25T11:32:17.320Z,18.40
2022-12-25T11:33:17.292Z,21.20
2022-12-25T11:34:17.281Z,20.50
2022-12-25T11:35:17.269Z,19.40
2022-12-25T11:36:17.251Z,17.70
2022-12-25T11:37:17.260Z,18.60
2022-12-25T11:38:17.271Z,27.20
2022-12-25T11:39:17.216Z,21.50
2022-12-25T11:40:17.238Z,20.30
2022-12-25T11:41:17.226Z,22.90
2022-12-25T11:42:17.194Z,20.20
2022-12-25T11:43:17.183Z,24.00
2022-12-25T11:44:17.220Z,23.80
2022-12-25T11:45:17.180Z,25.60
2022-12-25T11:46:17.198Z,27.80
2022-12-25T11:47:17.141Z,24.50
2022-12-25T11:48:17.123Z,25.90
2022-12-25T11:49:17.161Z,21.30
2022-12-25T11:50:17.125Z,22.60
2022-12-25T11:51:17.091Z,20.00
2022-12-25T11:52:17.094Z,20.80
2022-12-25T11:53:17.203Z,18.50
2022-12-25T11:54:17.071Z,23.70
2022-12-25T11:55:17.116Z,23.70
2022-12-25T11:56:22.371Z,20.30
2022-12-25T11:57:17.030Z,21.70
2022-12-25T11:58:17.017Z,21.80
2022-12-25T11:59:18.469Z,25.20
2022-12-25T12:00:17.004Z,23.50
2022-12-25T12:01:17.013Z,20.00
2022-12-25T12:02:17.187Z,23.70
2022-12-25T12:03:17.167Z,23.90
2022-12-25T12:04:16.958Z,19.60
2022-12-25T12:05:17.024Z,21.30
2022-12-25T12:06:16.945Z,20.90
2022-12-25T12:07:16.919Z,18.00
2022-12-25T12:08:16.913Z,22.60
2022-12-25T12:09:16.911Z,19.80
2022-12-25T12:10:16.889Z,17.80
2022-12-25T12:11:16.929Z,18.60
2022-12-25T12:12:16.873Z,19.50
2022-12-25T12:13:16.859Z,22.90
2022-12-25T12:14:16.885Z,22.80
2022-12-25T12:15:16.852Z,17.50
2022-12-25T12:16:16.860Z,18.00
2022-12-25T12:17:16.844Z,24.90
2022-12-25T12:18:16.808Z,20.20
2022-12-25T12:19:16.798Z,19.20
2022-12-25T12:20:16.787Z,18.20
2022-12-25T12:21:16.837Z,24.80
2022-12-25T12:22:16.759Z,21.30
2022-12-25T12:23:16.769Z,20.30
2022-12-25T12:24:16.801Z,21.70
2022-12-25T12:25:16.748Z,23.20
2022-12-25T12:26:16.717Z,22.90
2022-12-25T12:27:16.698Z,21.00
2022-12-25T12:28:16.689Z,22.90
2022-12-25T12:29:16.714Z,24.80
2022-12-25T12:30:16.677Z,24.30
2022-12-25T12:31:16.707Z,23.10
2022-12-25T12:32:16.648Z,18.60
2022-12-25T12:33:16.637Z,18.50
2022-12-25T12:34:16.676Z,16.60
2022-12-25T12:35:16.618Z,16.20
2022-12-25T12:36:16.619Z,18.30
2022-12-25T12:37:21.410Z,20.50
2022-12-25T12:38:17.662Z,18.10
2022-12-25T12:39:16.576Z,18.00
2022-12-25T12:40:16.599Z,17.10
2022-12-25T12:41:16.557Z,19.70
2022-12-25T12:42:16.587Z,20.30
2022-12-25T12:43:16.528Z,21.50
2022-12-25T12:44:16.580Z,18.50
2022-12-25T12:45:16.523Z,19.10
2022-12-25T12:46:16.575Z,18.70
2022-12-25T12:47:16.498Z,19.60
2022-12-25T12:48:16.488Z,20.60
2022-12-25T12:49:16.500Z,18.50
2022-12-25T12:50:16.568Z,18.90
2022-12-25T12:51:16.447Z,17.40
2022-12-25T12:52:16.451Z,17.50
2022-12-25T12:53:16.527Z,15.60
2022-12-25T12:54:16.424Z,17.30